sensor_id;sensor_type;location;lat;lon;timestamp;temperature;humidity
68450;SHT30;55434;39.570;2.652;2023-01-16T00:00:32;12.72;57.04
68450;SHT30;55434;39.570;2.652;2023-01-16T00:02:57;12.70;57.20
68450;SHT30;55434;39.570;2.652;2023-01-16T00:05:23;12.63;57.41
68450;SHT30;55434;39.570;2.652;2023-01-16T00:07:48;12.60;57.32
68450;SHT30;55434;39.570;2.652;2023-01-16T00:10:14;12.62;57.43
68450;SHT30;55434;39.570;2.652;2023-01-16T00:12:41;12.57;57.48
68450;SHT30;55434;39.570;2.652;2023-01-16T00:15:07;12.63;57.08
68450;SHT30;55434;39.570;2.652;2023-01-16T00:17:33;12.57;56.64
68450;SHT30;55434;39.570;2.652;2023-01-16T00:19:58;12.59;56.77
68450;SHT30;55434;39.570;2.652;2023-01-16T00:22:24;12.56;56.86
68450;SHT30;55434;39.570;2.652;2023-01-16T00:24:50;12.59;56.83
68450;SHT30;55434;39.570;2.652;2023-01-16T00:27:15;12.59;56.83
68450;SHT30;55434;39.570;2.652;2023-01-16T00:29:41;12.60;56.95
68450;SHT30;55434;39.570;2.652;2023-01-16T00:32:06;12.62;57.04
68450;SHT30;55434;39.570;2.652;2023-01-16T00:34:32;12.64;57.30
68450;SHT30;55434;39.570;2.652;2023-01-16T00:36:58;12.64;57.72
68450;SHT30;55434;39.570;2.652;2023-01-16T00:39:24;12.66;58.12
68450;SHT30;55434;39.570;2.652;2023-01-16T00:41:49;12.64;58.56
68450;SHT30;55434;39.570;2.652;2023-01-16T00:44:16;12.69;58.91
68450;SHT30;55434;39.570;2.652;2023-01-16T00:46:42;12.67;59.48
68450;SHT30;55434;39.570;2.652;2023-01-16T00:49:07;12.66;60.31
68450;SHT30;55434;39.570;2.652;2023-01-16T00:51:33;12.67;60.63
68450;SHT30;55434;39.570;2.652;2023-01-16T00:53:59;12.67;61.20
68450;SHT30;55434;39.570;2.652;2023-01-16T00:56:24;12.62;61.58
68450;SHT30;55434;39.570;2.652;2023-01-16T00:58:50;12.60;61.77
68450;SHT30;55434;39.570;2.652;2023-01-16T01:01:15;12.59;62.05
68450;SHT30;55434;39.570;2.652;2023-01-16T01:03:41;12.57;61.10
68450;SHT30;55434;39.570;2.652;2023-01-16T01:06:08;12.63;58.19
68450;SHT30;55434;39.570;2.652;2023-01-16T01:08:34;12.69;58.20
68450;SHT30;55434;39.570;2.652;2023-01-16T01:11:13;12.66;57.08
68450;SHT30;55434;39.570;2.652;2023-01-16T01:13:40;12.56;56.96
68450;SHT30;55434;39.570;2.652;2023-01-16T01:16:08;12.59;56.57
68450;SHT30;55434;39.570;2.652;2023-01-16T01:18:34;12.40;57.02
68450;SHT30;55434;39.570;2.652;2023-01-16T01:21:00;12.43;55.42
68450;SHT30;55434;39.570;2.652;2023-01-16T01:23:26;12.48;54.30
68450;SHT30;55434;39.570;2.652;2023-01-16T01:25:53;12.50;53.98
68450;SHT30;55434;39.570;2.652;2023-01-16T01:28:19;12.52;53.99
68450;SHT30;55434;39.570;2.652;2023-01-16T01:30:45;12.53;53.73
68450;SHT30;55434;39.570;2.652;2023-01-16T01:33:10;12.50;53.71
68450;SHT30;55434;39.570;2.652;2023-01-16T01:35:37;12.50;54.28
68450;SHT30;55434;39.570;2.652;2023-01-16T01:38:03;12.43;54.28
68450;SHT30;55434;39.570;2.652;2023-01-16T01:40:30;12.53;53.76
68450;SHT30;55434;39.570;2.652;2023-01-16T01:42:55;12.45;54.43
68450;SHT30;55434;39.570;2.652;2023-01-16T01:45:26;12.38;54.13
68450;SHT30;55434;39.570;2.652;2023-01-16T01:48:07;12.53;53.72
68450;SHT30;55434;39.570;2.652;2023-01-16T01:50:51;12.56;53.70
68450;SHT30;55434;39.570;2.652;2023-01-16T01:53:29;12.50;53.93
68450;SHT30;55434;39.570;2.652;2023-01-16T01:55:59;12.42;54.14
68450;SHT30;55434;39.570;2.652;2023-01-16T01:58:27;12.30;54.91
68450;SHT30;55434;39.570;2.652;2023-01-16T02:00:56;12.45;54.28
68450;SHT30;55434;39.570;2.652;2023-01-16T02:03:34;12.38;54.55
68450;SHT30;55434;39.570;2.652;2023-01-16T02:06:06;12.46;54.63
68450;SHT30;55434;39.570;2.652;2023-01-16T02:08:34;12.52;54.36
68450;SHT30;55434;39.570;2.652;2023-01-16T02:11:07;12.45;54.30
68450;SHT30;55434;39.570;2.652;2023-01-16T02:13:36;12.45;54.69
68450;SHT30;55434;39.570;2.652;2023-01-16T02:16:03;12.45;54.42
68450;SHT30;55434;39.570;2.652;2023-01-16T02:18:47;12.40;54.36
68450;SHT30;55434;39.570;2.652;2023-01-16T02:33:32;12.28;56.24
68450;SHT30;55434;39.570;2.652;2023-01-16T02:44:36;12.29;57.30
68450;SHT30;55434;39.570;2.652;2023-01-16T02:55:57;12.24;58.61
68450;SHT30;55434;39.570;2.652;2023-01-16T02:58:29;12.25;58.96
68450;SHT30;55434;39.570;2.652;2023-01-16T03:00:57;12.32;58.93
68450;SHT30;55434;39.570;2.652;2023-01-16T03:04:01;12.38;59.30
68450;SHT30;55434;39.570;2.652;2023-01-16T03:06:43;12.30;60.22
68450;SHT30;55434;39.570;2.652;2023-01-16T03:09:30;12.19;61.35
68450;SHT30;55434;39.570;2.652;2023-01-16T03:12:30;12.12;62.03
68450;SHT30;55434;39.570;2.652;2023-01-16T03:15:09;12.04;62.74
68450;SHT30;55434;39.570;2.652;2023-01-16T03:23:09;11.99;63.73
68450;SHT30;55434;39.570;2.652;2023-01-16T03:25:57;11.98;64.03
68450;SHT30;55434;39.570;2.652;2023-01-16T03:31:49;11.92;64.93
68450;SHT30;55434;39.570;2.652;2023-01-16T03:39:53;11.81;66.10
68450;SHT30;55434;39.570;2.652;2023-01-16T03:42:26;11.85;66.24
68450;SHT30;55434;39.570;2.652;2023-01-16T03:45:03;11.85;66.38
68450;SHT30;55434;39.570;2.652;2023-01-16T03:47:36;11.91;66.39
68450;SHT30;55434;39.570;2.652;2023-01-16T03:50:05;11.85;66.57
68450;SHT30;55434;39.570;2.652;2023-01-16T03:52:47;11.85;66.61
68450;SHT30;55434;39.570;2.652;2023-01-16T03:55:24;11.82;66.72
68450;SHT30;55434;39.570;2.652;2023-01-16T03:58:19;11.84;66.79
68450;SHT30;55434;39.570;2.652;2023-01-16T04:00:57;11.79;66.86
68450;SHT30;55434;39.570;2.652;2023-01-16T04:03:54;11.87;66.83
68450;SHT30;55434;39.570;2.652;2023-01-16T04:06:46;11.81;66.57
68450;SHT30;55434;39.570;2.652;2023-01-16T04:09:59;11.84;66.59
68450;SHT30;55434;39.570;2.652;2023-01-16T04:12:07;11.84;65.98
68450;SHT30;55434;39.570;2.652;2023-01-16T04:14:34;11.85;65.74
68450;SHT30;55434;39.570;2.652;2023-01-16T04:17:01;11.85;65.65
68450;SHT30;55434;39.570;2.652;2023-01-16T04:19:30;11.84;65.42
68450;SHT30;55434;39.570;2.652;2023-01-16T04:21:56;11.85;65.14
68450;SHT30;55434;39.570;2.652;2023-01-16T04:24:22;11.81;65.15
68450;SHT30;55434;39.570;2.652;2023-01-16T04:26:48;11.82;64.99
68450;SHT30;55434;39.570;2.652;2023-01-16T04:29:16;11.84;65.12
68450;SHT30;55434;39.570;2.652;2023-01-16T04:31:42;11.88;65.03
68450;SHT30;55434;39.570;2.652;2023-01-16T04:34:07;11.88;64.67
68450;SHT30;55434;39.570;2.652;2023-01-16T04:36:33;11.84;64.20
68450;SHT30;55434;39.570;2.652;2023-01-16T04:38:59;11.91;63.83
68450;SHT30;55434;39.570;2.652;2023-01-16T04:41:25;11.95;64.02
68450;SHT30;55434;39.570;2.652;2023-01-16T04:44:07;11.94;62.79
68450;SHT30;55434;39.570;2.652;2023-01-16T04:46:34;11.95;63.27
68450;SHT30;55434;39.570;2.652;2023-01-16T04:49:00;11.92;63.01
68450;SHT30;55434;39.570;2.652;2023-01-16T04:51:25;11.92;62.65
68450;SHT30;55434;39.570;2.652;2023-01-16T04:53:51;11.91;62.55
68450;SHT30;55434;39.570;2.652;2023-01-16T04:56:17;11.94;62.82
68450;SHT30;55434;39.570;2.652;2023-01-16T04:58:43;11.91;61.98
68450;SHT30;55434;39.570;2.652;2023-01-16T05:01:08;11.99;61.99
68450;SHT30;55434;39.570;2.652;2023-01-16T05:03:34;11.97;61.97
68450;SHT30;55434;39.570;2.652;2023-01-16T05:05:59;11.99;61.90
68450;SHT30;55434;39.570;2.652;2023-01-16T05:08:25;12.01;61.96
68450;SHT30;55434;39.570;2.652;2023-01-16T05:10:54;11.98;62.01
68450;SHT30;55434;39.570;2.652;2023-01-16T05:13:21;12.04;61.88
68450;SHT30;55434;39.570;2.652;2023-01-16T05:15:47;12.05;61.75
68450;SHT30;55434;39.570;2.652;2023-01-16T05:18:13;12.02;61.67
68450;SHT30;55434;39.570;2.652;2023-01-16T05:20:39;12.06;61.65
68450;SHT30;55434;39.570;2.652;2023-01-16T05:23:05;12.02;61.86
68450;SHT30;55434;39.570;2.652;2023-01-16T05:25:31;12.02;61.94
68450;SHT30;55434;39.570;2.652;2023-01-16T05:27:57;12.02;62.22
68450;SHT30;55434;39.570;2.652;2023-01-16T05:30:23;12.01;62.26
68450;SHT30;55434;39.570;2.652;2023-01-16T05:32:48;12.02;62.48
68450;SHT30;55434;39.570;2.652;2023-01-16T05:35:14;12.02;62.66
68450;SHT30;55434;39.570;2.652;2023-01-16T05:37:42;11.97;63.06
68450;SHT30;55434;39.570;2.652;2023-01-16T05:40:08;11.99;63.34
68450;SHT30;55434;39.570;2.652;2023-01-16T05:42:35;12.05;63.75
68450;SHT30;55434;39.570;2.652;2023-01-16T05:45:01;12.11;63.71
68450;SHT30;55434;39.570;2.652;2023-01-16T05:47:27;12.08;63.98
68450;SHT30;55434;39.570;2.652;2023-01-16T05:49:53;12.09;64.42
68450;SHT30;55434;39.570;2.652;2023-01-16T05:52:18;12.04;65.03
68450;SHT30;55434;39.570;2.652;2023-01-16T05:54:44;12.09;66.07
68450;SHT30;55434;39.570;2.652;2023-01-16T05:57:10;12.17;66.84
68450;SHT30;55434;39.570;2.652;2023-01-16T05:59:36;12.26;66.90
68450;SHT30;55434;39.570;2.652;2023-01-16T06:02:01;12.35;66.31
68450;SHT30;55434;39.570;2.652;2023-01-16T06:04:27;12.43;65.71
68450;SHT30;55434;39.570;2.652;2023-01-16T06:06:53;12.40;64.61
68450;SHT30;55434;39.570;2.652;2023-01-16T06:09:19;12.40;64.49
68450;SHT30;55434;39.570;2.652;2023-01-16T06:11:45;12.38;64.39
68450;SHT30;55434;39.570;2.652;2023-01-16T06:14:10;12.40;62.88
68450;SHT30;55434;39.570;2.652;2023-01-16T06:16:36;12.43;63.20
68450;SHT30;55434;39.570;2.652;2023-01-16T06:19:01;12.42;62.73
68450;SHT30;55434;39.570;2.652;2023-01-16T06:21:27;12.43;62.65
68450;SHT30;55434;39.570;2.652;2023-01-16T06:23:53;12.38;62.70
68450;SHT30;55434;39.570;2.652;2023-01-16T06:26:19;12.38;62.44
68450;SHT30;55434;39.570;2.652;2023-01-16T06:28:45;12.39;62.74
68450;SHT30;55434;39.570;2.652;2023-01-16T06:31:11;12.38;62.82
68450;SHT30;55434;39.570;2.652;2023-01-16T06:33:40;12.36;62.75
68450;SHT30;55434;39.570;2.652;2023-01-16T06:36:06;12.42;63.22
68450;SHT30;55434;39.570;2.652;2023-01-16T06:38:31;12.43;63.45
68450;SHT30;55434;39.570;2.652;2023-01-16T06:40:57;12.42;63.34
68450;SHT30;55434;39.570;2.652;2023-01-16T06:43:23;12.42;63.65
68450;SHT30;55434;39.570;2.652;2023-01-16T06:45:49;12.40;63.77
68450;SHT30;55434;39.570;2.652;2023-01-16T06:48:15;12.43;63.62
68450;SHT30;55434;39.570;2.652;2023-01-16T06:50:41;12.39;63.99
68450;SHT30;55434;39.570;2.652;2023-01-16T06:53:06;12.38;64.27
68450;SHT30;55434;39.570;2.652;2023-01-16T06:55:32;12.45;64.39
68450;SHT30;55434;39.570;2.652;2023-01-16T06:57:57;12.45;64.25
68450;SHT30;55434;39.570;2.652;2023-01-16T07:00:23;12.46;64.69
68450;SHT30;55434;39.570;2.652;2023-01-16T07:02:53;12.43;64.84
68450;SHT30;55434;39.570;2.652;2023-01-16T07:05:27;12.40;65.31
68450;SHT30;55434;39.570;2.652;2023-01-16T07:07:53;12.50;65.44
68450;SHT30;55434;39.570;2.652;2023-01-16T07:10:18;12.53;65.63
68450;SHT30;55434;39.570;2.652;2023-01-16T07:12:48;12.50;66.05
68450;SHT30;55434;39.570;2.652;2023-01-16T07:15:14;12.52;66.05
68450;SHT30;55434;39.570;2.652;2023-01-16T07:17:59;12.62;65.49
68450;SHT30;55434;39.570;2.652;2023-01-16T07:20:50;12.59;65.37
68450;SHT30;55434;39.570;2.652;2023-01-16T07:23:37;12.62;65.36
68450;SHT30;55434;39.570;2.652;2023-01-16T07:26:05;12.62;65.53
68450;SHT30;55434;39.570;2.652;2023-01-16T07:28:32;12.56;65.40
68450;SHT30;55434;39.570;2.652;2023-01-16T07:30:58;12.56;65.47
68450;SHT30;55434;39.570;2.652;2023-01-16T07:33:23;12.55;65.47
68450;SHT30;55434;39.570;2.652;2023-01-16T07:35:50;12.52;65.11
68450;SHT30;55434;39.570;2.652;2023-01-16T07:38:15;12.62;64.76
68450;SHT30;55434;39.570;2.652;2023-01-16T07:40:41;12.60;65.01
68450;SHT30;55434;39.570;2.652;2023-01-16T07:43:08;12.63;64.97
68450;SHT30;55434;39.570;2.652;2023-01-16T07:45:35;12.67;64.94
68450;SHT30;55434;39.570;2.652;2023-01-16T07:48:01;12.67;64.90
68450;SHT30;55434;39.570;2.652;2023-01-16T07:50:28;12.69;64.77
68450;SHT30;55434;39.570;2.652;2023-01-16T07:52:53;12.70;64.60
68450;SHT30;55434;39.570;2.652;2023-01-16T07:55:19;12.67;64.79
68450;SHT30;55434;39.570;2.652;2023-01-16T07:57:45;12.72;64.96
68450;SHT30;55434;39.570;2.652;2023-01-16T08:00:11;12.67;65.23
68450;SHT30;55434;39.570;2.652;2023-01-16T08:02:41;12.64;65.25
68450;SHT30;55434;39.570;2.652;2023-01-16T08:05:09;12.69;65.27
68450;SHT30;55434;39.570;2.652;2023-01-16T08:07:35;12.81;64.51
68450;SHT30;55434;39.570;2.652;2023-01-16T08:10:02;12.86;64.63
68450;SHT30;55434;39.570;2.652;2023-01-16T08:12:28;12.91;64.53
68450;SHT30;55434;39.570;2.652;2023-01-16T08:14:54;12.91;64.22
68450;SHT30;55434;39.570;2.652;2023-01-16T08:17:20;12.96;64.30
68450;SHT30;55434;39.570;2.652;2023-01-16T08:19:45;12.96;64.55
68450;SHT30;55434;39.570;2.652;2023-01-16T08:22:11;12.94;64.79
68450;SHT30;55434;39.570;2.652;2023-01-16T08:24:37;13.00;64.45
68450;SHT30;55434;39.570;2.652;2023-01-16T08:27:03;13.03;64.11
68450;SHT30;55434;39.570;2.652;2023-01-16T08:29:29;13.08;63.47
68450;SHT30;55434;39.570;2.652;2023-01-16T08:31:59;13.13;63.43
68450;SHT30;55434;39.570;2.652;2023-01-16T08:34:24;13.14;63.31
68450;SHT30;55434;39.570;2.652;2023-01-16T08:36:50;13.23;63.32
68450;SHT30;55434;39.570;2.652;2023-01-16T08:39:17;13.27;63.32
68450;SHT30;55434;39.570;2.652;2023-01-16T08:41:42;13.30;63.30
68450;SHT30;55434;39.570;2.652;2023-01-16T08:44:26;13.32;63.54
68450;SHT30;55434;39.570;2.652;2023-01-16T08:47:13;13.38;63.55
68450;SHT30;55434;39.570;2.652;2023-01-16T08:49:59;13.41;63.98
68450;SHT30;55434;39.570;2.652;2023-01-16T08:52:44;13.42;64.07
68450;SHT30;55434;39.570;2.652;2023-01-16T08:55:10;13.47;64.26
68450;SHT30;55434;39.570;2.652;2023-01-16T08:57:36;13.51;64.47
68450;SHT30;55434;39.570;2.652;2023-01-16T09:00:04;13.50;64.55
68450;SHT30;55434;39.570;2.652;2023-01-16T09:02:30;13.52;64.35
68450;SHT30;55434;39.570;2.652;2023-01-16T09:05:00;13.57;64.73
68450;SHT30;55434;39.570;2.652;2023-01-16T09:07:25;13.68;64.55
68450;SHT30;55434;39.570;2.652;2023-01-16T09:09:51;13.55;62.49
68450;SHT30;55434;39.570;2.652;2023-01-16T09:12:17;13.64;62.66
68450;SHT30;55434;39.570;2.652;2023-01-16T09:15:01;13.66;62.79
68450;SHT30;55434;39.570;2.652;2023-01-16T09:17:27;13.64;63.74
68450;SHT30;55434;39.570;2.652;2023-01-16T09:19:53;13.64;64.46
68450;SHT30;55434;39.570;2.652;2023-01-16T09:22:19;13.69;63.96
68450;SHT30;55434;39.570;2.652;2023-01-16T09:24:45;13.74;63.88
68450;SHT30;55434;39.570;2.652;2023-01-16T09:27:11;13.76;63.73
68450;SHT30;55434;39.570;2.652;2023-01-16T09:29:41;13.83;63.36
68450;SHT30;55434;39.570;2.652;2023-01-16T09:32:07;13.92;62.87
68450;SHT30;55434;39.570;2.652;2023-01-16T09:34:38;13.96;62.60
68450;SHT30;55434;39.570;2.652;2023-01-16T09:37:05;13.99;62.42
68450;SHT30;55434;39.570;2.652;2023-01-16T09:39:32;13.98;62.53
68450;SHT30;55434;39.570;2.652;2023-01-16T09:45:02;14.08;61.94
68450;SHT30;55434;39.570;2.652;2023-01-16T09:47:30;14.13;61.77
68450;SHT30;55434;39.570;2.652;2023-01-16T09:50:18;14.09;62.35
68450;SHT30;55434;39.570;2.652;2023-01-16T09:52:48;14.19;61.66
68450;SHT30;55434;39.570;2.652;2023-01-16T09:55:41;14.10;60.55
68450;SHT30;55434;39.570;2.652;2023-01-16T09:58:27;14.36;60.07
68450;SHT30;55434;39.570;2.652;2023-01-16T10:01:13;14.38;60.11
68450;SHT30;55434;39.570;2.652;2023-01-16T10:03:39;14.44;60.23
68450;SHT30;55434;39.570;2.652;2023-01-16T10:06:29;14.41;59.76
68450;SHT30;55434;39.570;2.652;2023-01-16T10:09:23;14.34;59.68
68450;SHT30;55434;39.570;2.652;2023-01-16T10:11:57;14.40;59.47
68450;SHT30;55434;39.570;2.652;2023-01-16T10:14:44;14.30;59.79
68450;SHT30;55434;39.570;2.652;2023-01-16T10:23:04;14.60;58.43
68450;SHT30;55434;39.570;2.652;2023-01-16T10:25:59;14.66;56.83
68450;SHT30;55434;39.570;2.652;2023-01-16T10:33:33;14.73;57.67
68450;SHT30;55434;39.570;2.652;2023-01-16T10:36:02;14.88;58.13
68450;SHT30;55434;39.570;2.652;2023-01-16T10:38:42;14.99;57.66
68450;SHT30;55434;39.570;2.652;2023-01-16T10:41:14;15.40;56.26
68450;SHT30;55434;39.570;2.652;2023-01-16T10:44:02;15.50;56.25
68450;SHT30;55434;39.570;2.652;2023-01-16T10:46:49;15.43;55.67
68450;SHT30;55434;39.570;2.652;2023-01-16T10:49:34;15.48;55.03
68450;SHT30;55434;39.570;2.652;2023-01-16T10:52:03;15.60;54.55
68450;SHT30;55434;39.570;2.652;2023-01-16T10:54:30;15.60;54.84
68450;SHT30;55434;39.570;2.652;2023-01-16T10:56:58;15.62;54.49
68450;SHT30;55434;39.570;2.652;2023-01-16T10:59:32;15.48;54.55
68450;SHT30;55434;39.570;2.652;2023-01-16T11:02:08;15.49;54.41
68450;SHT30;55434;39.570;2.652;2023-01-16T11:04:43;15.55;54.50
68450;SHT30;55434;39.570;2.652;2023-01-16T11:07:19;15.48;54.94
68450;SHT30;55434;39.570;2.652;2023-01-16T11:09:45;15.48;55.56
68450;SHT30;55434;39.570;2.652;2023-01-16T11:12:25;15.83;55.34
68450;SHT30;55434;39.570;2.652;2023-01-16T11:15:29;16.34;53.26
68450;SHT30;55434;39.570;2.652;2023-01-16T11:18:34;16.00;53.89
68450;SHT30;55434;39.570;2.652;2023-01-16T11:21:29;16.28;53.54
68450;SHT30;55434;39.570;2.652;2023-01-16T11:24:18;16.28;53.19
68450;SHT30;55434;39.570;2.652;2023-01-16T11:26:49;16.65;52.75
68450;SHT30;55434;39.570;2.652;2023-01-16T11:29:17;16.68;52.95
68450;SHT30;55434;39.570;2.652;2023-01-16T11:31:48;17.01;52.26
68450;SHT30;55434;39.570;2.652;2023-01-16T11:34:18;16.75;53.17
68450;SHT30;55434;39.570;2.652;2023-01-16T11:36:46;16.65;53.63
68450;SHT30;55434;39.570;2.652;2023-01-16T11:39:21;16.69;53.87
68450;SHT30;55434;39.570;2.652;2023-01-16T11:41:51;16.69;53.78
68450;SHT30;55434;39.570;2.652;2023-01-16T11:44:27;17.06;53.38
68450;SHT30;55434;39.570;2.652;2023-01-16T11:47:15;17.08;53.01
68450;SHT30;55434;39.570;2.652;2023-01-16T11:49:47;16.73;53.78
68450;SHT30;55434;39.570;2.652;2023-01-16T11:52:15;16.31;54.46
68450;SHT30;55434;39.570;2.652;2023-01-16T11:54:59;16.62;53.65
68450;SHT30;55434;39.570;2.652;2023-01-16T11:57:48;17.24;52.21
68450;SHT30;55434;39.570;2.652;2023-01-16T12:00:58;16.98;52.96
68450;SHT30;55434;39.570;2.652;2023-01-16T12:09:28;16.95;53.47
68450;SHT30;55434;39.570;2.652;2023-01-16T12:12:39;17.15;53.08
68450;SHT30;55434;39.570;2.652;2023-01-16T12:15:59;17.81;51.72
68450;SHT30;55434;39.570;2.652;2023-01-16T12:18:38;17.49;51.96
68450;SHT30;55434;39.570;2.652;2023-01-16T12:21:31;17.13;52.73
68450;SHT30;55434;39.570;2.652;2023-01-16T12:27:16;17.94;51.33
68450;SHT30;55434;39.570;2.652;2023-01-16T12:30:02;17.44;52.02
68450;SHT30;55434;39.570;2.652;2023-01-16T12:35:28;16.86;53.23
68450;SHT30;55434;39.570;2.652;2023-01-16T12:38:08;16.99;53.65
68450;SHT30;55434;39.570;2.652;2023-01-16T12:46:54;17.06;54.33
68450;SHT30;55434;39.570;2.652;2023-01-16T13:03:16;16.85;54.60
68450;SHT30;55434;39.570;2.652;2023-01-16T13:05:47;17.03;54.41
68450;SHT30;55434;39.570;2.652;2023-01-16T13:08:27;16.67;55.52
68450;SHT30;55434;39.570;2.652;2023-01-16T13:11:10;17.03;55.45
68450;SHT30;55434;39.570;2.652;2023-01-16T13:13:59;16.98;56.00
68450;SHT30;55434;39.570;2.652;2023-01-16T13:16:30;17.08;56.05
68450;SHT30;55434;39.570;2.652;2023-01-16T13:19:43;16.55;57.86
68450;SHT30;55434;39.570;2.652;2023-01-16T13:21:57;16.50;58.14
68450;SHT30;55434;39.570;2.652;2023-01-16T13:24:33;16.22;59.04
68450;SHT30;55434;39.570;2.652;2023-01-16T13:27:02;16.24;59.18
68450;SHT30;55434;39.570;2.652;2023-01-16T13:29:42;16.14;59.31
68450;SHT30;55434;39.570;2.652;2023-01-16T13:32:40;16.32;59.00
68450;SHT30;55434;39.570;2.652;2023-01-16T13:38:02;16.35;59.21
68450;SHT30;55434;39.570;2.652;2023-01-16T13:40:53;16.00;59.99
68450;SHT30;55434;39.570;2.652;2023-01-16T13:43:29;15.87;60.26
68450;SHT30;55434;39.570;2.652;2023-01-16T13:46:14;15.93;60.07
68450;SHT30;55434;39.570;2.652;2023-01-16T13:48:40;15.82;60.83
68450;SHT30;55434;39.570;2.652;2023-01-16T13:51:13;15.83;60.53
68450;SHT30;55434;39.570;2.652;2023-01-16T13:53:50;15.67;61.03
68450;SHT30;55434;39.570;2.652;2023-01-16T13:56:22;15.79;60.99
68450;SHT30;55434;39.570;2.652;2023-01-16T13:59:04;15.73;61.59
68450;SHT30;55434;39.570;2.652;2023-01-16T14:06:53;15.96;60.73
68450;SHT30;55434;39.570;2.652;2023-01-16T14:10:03;15.93;61.06
68450;SHT30;55434;39.570;2.652;2023-01-16T14:12:33;15.93;60.91
68450;SHT30;55434;39.570;2.652;2023-01-16T14:15:16;16.01;60.89
68450;SHT30;55434;39.570;2.652;2023-01-16T14:18:11;16.16;60.40
68450;SHT30;55434;39.570;2.652;2023-01-16T14:20:50;16.09;60.20
68450;SHT30;55434;39.570;2.652;2023-01-16T14:23:29;16.22;60.13
68450;SHT30;55434;39.570;2.652;2023-01-16T14:26:19;16.41;59.35
68450;SHT30;55434;39.570;2.652;2023-01-16T14:28:48;16.58;58.94
68450;SHT30;55434;39.570;2.652;2023-01-16T14:31:28;16.44;58.95
68450;SHT30;55434;39.570;2.652;2023-01-16T14:34:01;16.72;58.44
68450;SHT30;55434;39.570;2.652;2023-01-16T14:36:28;16.69;58.61
68450;SHT30;55434;39.570;2.652;2023-01-16T14:39:02;16.78;58.76
68450;SHT30;55434;39.570;2.652;2023-01-16T14:41:31;16.58;59.49
68450;SHT30;55434;39.570;2.652;2023-01-16T14:44:24;16.79;59.01
68450;SHT30;55434;39.570;2.652;2023-01-16T14:50:15;16.55;59.54
68450;SHT30;55434;39.570;2.652;2023-01-16T14:53:20;16.96;58.83
68450;SHT30;55434;39.570;2.652;2023-01-16T14:56:26;16.96;58.08
68450;SHT30;55434;39.570;2.652;2023-01-16T14:59:04;16.58;58.79
68450;SHT30;55434;39.570;2.652;2023-01-16T15:01:47;16.58;58.90
68450;SHT30;55434;39.570;2.652;2023-01-16T15:07:41;16.64;57.85
68450;SHT30;55434;39.570;2.652;2023-01-16T15:10:39;16.79;57.00
68450;SHT30;55434;39.570;2.652;2023-01-16T15:13:30;16.65;57.36
68450;SHT30;55434;39.570;2.652;2023-01-16T15:16:22;16.79;57.24
68450;SHT30;55434;39.570;2.652;2023-01-16T15:22:47;17.19;56.15
68450;SHT30;55434;39.570;2.652;2023-01-16T15:27:59;16.93;56.28
68450;SHT30;55434;39.570;2.652;2023-01-16T15:30:28;17.20;55.88
68450;SHT30;55434;39.570;2.652;2023-01-16T15:32:57;17.46;55.35
68450;SHT30;55434;39.570;2.652;2023-01-16T15:35:56;17.13;55.67
68450;SHT30;55434;39.570;2.652;2023-01-16T15:38:35;17.50;55.30
68450;SHT30;55434;39.570;2.652;2023-01-16T15:41:01;17.40;55.52
68450;SHT30;55434;39.570;2.652;2023-01-16T15:43:28;17.18;56.09
68450;SHT30;55434;39.570;2.652;2023-01-16T15:46:24;16.72;57.52
68450;SHT30;55434;39.570;2.652;2023-01-16T15:52:35;16.65;58.10
68450;SHT30;55434;39.570;2.652;2023-01-16T15:55:18;16.51;58.85
68450;SHT30;55434;39.570;2.652;2023-01-16T15:58:14;16.45;59.05
68450;SHT30;55434;39.570;2.652;2023-01-16T16:00:41;16.41;59.81
68450;SHT30;55434;39.570;2.652;2023-01-16T16:03:14;16.35;59.90
68450;SHT30;55434;39.570;2.652;2023-01-16T16:05:53;16.17;60.63
68450;SHT30;55434;39.570;2.652;2023-01-16T16:08:33;16.20;60.92
68450;SHT30;55434;39.570;2.652;2023-01-16T16:11:06;16.10;60.81
68450;SHT30;55434;39.570;2.652;2023-01-16T16:13:51;16.14;60.83
68450;SHT30;55434;39.570;2.652;2023-01-16T16:16:22;16.01;60.93
68450;SHT30;55434;39.570;2.652;2023-01-16T16:19:07;15.94;61.24
68450;SHT30;55434;39.570;2.652;2023-01-16T16:21:43;15.83;61.49
68450;SHT30;55434;39.570;2.652;2023-01-16T16:24:28;15.87;61.60
68450;SHT30;55434;39.570;2.652;2023-01-16T16:27:15;15.85;61.51
68450;SHT30;55434;39.570;2.652;2023-01-16T16:29:49;15.87;61.55
68450;SHT30;55434;39.570;2.652;2023-01-16T16:32:15;15.80;61.79
68450;SHT30;55434;39.570;2.652;2023-01-16T16:34:50;15.77;61.81
68450;SHT30;55434;39.570;2.652;2023-01-16T16:37:19;15.74;61.84
68450;SHT30;55434;39.570;2.652;2023-01-16T16:39:48;15.53;62.44
68450;SHT30;55434;39.570;2.652;2023-01-16T16:47:42;15.59;62.49
68450;SHT30;55434;39.570;2.652;2023-01-16T16:50:41;15.59;62.37
68450;SHT30;55434;39.570;2.652;2023-01-16T16:53:27;15.58;62.40
68450;SHT30;55434;39.570;2.652;2023-01-16T16:56:07;15.48;62.35
68450;SHT30;55434;39.570;2.652;2023-01-16T16:58:41;15.42;62.88
68450;SHT30;55434;39.570;2.652;2023-01-16T17:01:12;15.38;62.93
68450;SHT30;55434;39.570;2.652;2023-01-16T17:03:39;15.45;62.70
68450;SHT30;55434;39.570;2.652;2023-01-16T17:06:23;15.48;62.91
68450;SHT30;55434;39.570;2.652;2023-01-16T17:08:50;15.46;63.05
68450;SHT30;55434;39.570;2.652;2023-01-16T17:11:16;15.48;62.97
68450;SHT30;55434;39.570;2.652;2023-01-16T17:13:43;15.55;62.94
68450;SHT30;55434;39.570;2.652;2023-01-16T17:16:23;15.48;63.09
68450;SHT30;55434;39.570;2.652;2023-01-16T17:18:57;15.48;63.30
68450;SHT30;55434;39.570;2.652;2023-01-16T17:21:24;15.50;63.23
68450;SHT30;55434;39.570;2.652;2023-01-16T17:23:50;15.53;63.04
68450;SHT30;55434;39.570;2.652;2023-01-16T17:26:15;15.53;62.91
68450;SHT30;55434;39.570;2.652;2023-01-16T17:28:47;15.55;62.87
68450;SHT30;55434;39.570;2.652;2023-01-16T17:31:19;15.50;62.95
68450;SHT30;55434;39.570;2.652;2023-01-16T17:33:46;15.53;62.76
68450;SHT30;55434;39.570;2.652;2023-01-16T17:36:31;15.53;63.06
68450;SHT30;55434;39.570;2.652;2023-01-16T17:38:58;15.48;63.48
68450;SHT30;55434;39.570;2.652;2023-01-16T17:41:26;15.43;64.12
68450;SHT30;55434;39.570;2.652;2023-01-16T17:44:18;15.42;64.30
68450;SHT30;55434;39.570;2.652;2023-01-16T17:47:03;15.36;65.05
68450;SHT30;55434;39.570;2.652;2023-01-16T17:49:29;15.32;64.95
68450;SHT30;55434;39.570;2.652;2023-01-16T17:51:55;15.38;64.80
68450;SHT30;55434;39.570;2.652;2023-01-16T17:54:21;15.39;64.76
68450;SHT30;55434;39.570;2.652;2023-01-16T17:57:05;15.45;64.23
68450;SHT30;55434;39.570;2.652;2023-01-16T17:59:31;15.43;64.35
68450;SHT30;55434;39.570;2.652;2023-01-16T18:01:56;15.40;64.50
68450;SHT30;55434;39.570;2.652;2023-01-16T18:04:22;15.40;64.92
68450;SHT30;55434;39.570;2.652;2023-01-16T18:06:49;15.35;65.33